Terminal Aerodrome Forecast
Issued by NWS Omaha/Valley, NE

Home | Current Version | Previous Version | Graphics & Text | Print | Product List | Glossary On
Versions: 1 2 3 4 5 6 7 8 9 10 11 12 13 14 15 16 17
000
FTUS43 KOAX 180002 AAA
TAFOFK
TAF AMD
KOFK 180002Z 1800/1824 34012G22KT P6SM OVC120
     FM180300 35012G21KT P6SM OVC080
     FM180500 35015G24KT P6SM VCSH OVC060
     FM180700 34017G25KT P6SM VCSH OVC020
     FM180800 34017KT P6SM VCSH OVC040
     FM180900 33017KT P6SM OVC040 PROB30 1809/1812 4SM -SN OVC025
     FM181800 32023G31KT P6SM FEW250=

USA.gov is the U.S. government's official web portal to all federal, state and local government web resources and services.